sensor_id;sensor_type;location;lat;lon;timestamp;P1;durP1;ratioP1;P2;durP2;ratioP2
3207;SDS011;1616;52.394;9.756;2023-03-05T00:01:12;11.80;;;2.40;;
3207;SDS011;1616;52.394;9.756;2023-03-05T00:03:43;12.00;;;1.60;;
3207;SDS011;1616;52.394;9.756;2023-03-05T00:06:09;14.53;;;2.80;;
3207;SDS011;1616;52.394;9.756;2023-03-05T00:08:36;14.10;;;2.33;;
3207;SDS011;1616;52.394;9.756;2023-03-05T00:11:03;18.33;;;2.87;;
3207;SDS011;1616;52.394;9.756;2023-03-05T00:13:31;3.27;;;1.53;;
3207;SDS011;1616;52.394;9.756;2023-03-05T00:15:57;7.03;;;2.30;;
3207;SDS011;1616;52.394;9.756;2023-03-05T00:18:23;7.80;;;1.60;;
3207;SDS011;1616;52.394;9.756;2023-03-05T00:20:49;7.80;;;2.17;;
3207;SDS011;1616;52.394;9.756;2023-03-05T00:23:15;3.00;;;1.53;;
3207;SDS011;1616;52.394;9.756;2023-03-05T00:25:41;11.20;;;1.63;;
3207;SDS011;1616;52.394;9.756;2023-03-05T00:28:07;3.80;;;1.50;;
3207;SDS011;1616;52.394;9.756;2023-03-05T00:30:33;9.73;;;2.10;;
3207;SDS011;1616;52.394;9.756;2023-03-05T00:32:59;5.70;;;1.80;;
3207;SDS011;1616;52.394;9.756;2023-03-05T00:35:26;5.47;;;1.30;;
3207;SDS011;1616;52.394;9.756;2023-03-05T00:37:52;1.87;;;1.40;;
3207;SDS011;1616;52.394;9.756;2023-03-05T00:40:21;9.50;;;1.30;;
3207;SDS011;1616;52.394;9.756;2023-03-05T00:42:47;9.53;;;1.57;;
3207;SDS011;1616;52.394;9.756;2023-03-05T00:45:12;9.60;;;1.77;;
3207;SDS011;1616;52.394;9.756;2023-03-05T00:47:38;9.60;;;1.70;;
3207;SDS011;1616;52.394;9.756;2023-03-05T00:50:04;10.53;;;1.47;;
3207;SDS011;1616;52.394;9.756;2023-03-05T00:52:31;5.43;;;1.43;;
3207;SDS011;1616;52.394;9.756;2023-03-05T00:54:57;4.50;;;2.03;;
3207;SDS011;1616;52.394;9.756;2023-03-05T00:57:22;3.03;;;1.30;;
3207;SDS011;1616;52.394;9.756;2023-03-05T00:59:48;7.43;;;1.50;;
3207;SDS011;1616;52.394;9.756;2023-03-05T01:02:14;10.90;;;1.50;;
3207;SDS011;1616;52.394;9.756;2023-03-05T01:04:39;2.00;;;1.67;;
3207;SDS011;1616;52.394;9.756;2023-03-05T01:07:05;6.57;;;1.83;;
3207;SDS011;1616;52.394;9.756;2023-03-05T01:09:31;5.37;;;1.40;;
3207;SDS011;1616;52.394;9.756;2023-03-05T01:11:57;5.77;;;1.80;;
3207;SDS011;1616;52.394;9.756;2023-03-05T01:14:24;7.83;;;1.73;;
3207;SDS011;1616;52.394;9.756;2023-03-05T01:16:51;10.73;;;1.97;;
3207;SDS011;1616;52.394;9.756;2023-03-05T01:19:17;14.83;;;1.50;;
3207;SDS011;1616;52.394;9.756;2023-03-05T01:21:43;9.00;;;1.67;;
3207;SDS011;1616;52.394;9.756;2023-03-05T01:24:08;8.60;;;1.90;;
3207;SDS011;1616;52.394;9.756;2023-03-05T01:26:34;10.83;;;1.90;;
3207;SDS011;1616;52.394;9.756;2023-03-05T01:29:00;7.53;;;1.80;;
3207;SDS011;1616;52.394;9.756;2023-03-05T01:31:26;4.77;;;2.00;;
3207;SDS011;1616;52.394;9.756;2023-03-05T01:33:52;21.53;;;2.00;;
3207;SDS011;1616;52.394;9.756;2023-03-05T01:36:18;5.43;;;1.73;;
3207;SDS011;1616;52.394;9.756;2023-03-05T01:38:45;12.53;;;2.00;;
3207;SDS011;1616;52.394;9.756;2023-03-05T01:41:12;7.00;;;2.00;;
3207;SDS011;1616;52.394;9.756;2023-03-05T01:43:39;10.07;;;1.80;;
3207;SDS011;1616;52.394;9.756;2023-03-05T01:46:26;10.70;;;2.80;;
3207;SDS011;1616;52.394;9.756;2023-03-05T01:52:02;10.80;;;2.83;;
3207;SDS011;1616;52.394;9.756;2023-03-05T01:54:36;8.20;;;1.50;;
3207;SDS011;1616;52.394;9.756;2023-03-05T01:57:11;12.97;;;1.30;;
3207;SDS011;1616;52.394;9.756;2023-03-05T01:59:40;8.07;;;1.50;;
3207;SDS011;1616;52.394;9.756;2023-03-05T02:02:09;3.60;;;1.50;;
3207;SDS011;1616;52.394;9.756;2023-03-05T02:04:41;7.37;;;1.70;;
3207;SDS011;1616;52.394;9.756;2023-03-05T02:07:10;11.43;;;1.80;;
3207;SDS011;1616;52.394;9.756;2023-03-05T02:09:38;11.07;;;1.57;;
3207;SDS011;1616;52.394;9.756;2023-03-05T02:12:05;12.20;;;2.37;;
3207;SDS011;1616;52.394;9.756;2023-03-05T02:14:33;7.60;;;1.87;;
3207;SDS011;1616;52.394;9.756;2023-03-05T02:16:59;12.40;;;2.23;;
3207;SDS011;1616;52.394;9.756;2023-03-05T02:19:25;10.20;;;2.47;;
3207;SDS011;1616;52.394;9.756;2023-03-05T02:21:51;6.30;;;1.70;;
3207;SDS011;1616;52.394;9.756;2023-03-05T02:24:34;7.43;;;1.63;;
3207;SDS011;1616;52.394;9.756;2023-03-05T02:27:01;5.50;;;1.60;;
3207;SDS011;1616;52.394;9.756;2023-03-05T02:29:28;5.10;;;1.73;;
3207;SDS011;1616;52.394;9.756;2023-03-05T02:31:55;6.90;;;2.23;;
3207;SDS011;1616;52.394;9.756;2023-03-05T02:34:21;6.03;;;1.47;;
3207;SDS011;1616;52.394;9.756;2023-03-05T02:36:47;13.20;;;2.00;;
3207;SDS011;1616;52.394;9.756;2023-03-05T02:39:15;4.80;;;1.43;;
3207;SDS011;1616;52.394;9.756;2023-03-05T02:41:41;10.03;;;1.63;;
3207;SDS011;1616;52.394;9.756;2023-03-05T02:44:07;10.10;;;1.87;;
3207;SDS011;1616;52.394;9.756;2023-03-05T02:46:33;8.57;;;1.70;;
3207;SDS011;1616;52.394;9.756;2023-03-05T02:48:59;7.00;;;2.13;;
3207;SDS011;1616;52.394;9.756;2023-03-05T02:51:24;13.23;;;1.70;;
3207;SDS011;1616;52.394;9.756;2023-03-05T02:53:50;14.13;;;1.90;;
3207;SDS011;1616;52.394;9.756;2023-03-05T02:56:16;13.03;;;2.33;;
3207;SDS011;1616;52.394;9.756;2023-03-05T02:58:42;7.83;;;2.87;;
3207;SDS011;1616;52.394;9.756;2023-03-05T03:01:08;6.83;;;1.77;;
3207;SDS011;1616;52.394;9.756;2023-03-05T03:03:34;6.13;;;2.23;;
3207;SDS011;1616;52.394;9.756;2023-03-05T03:06:01;9.10;;;1.70;;
3207;SDS011;1616;52.394;9.756;2023-03-05T03:08:27;11.77;;;2.13;;
3207;SDS011;1616;52.394;9.756;2023-03-05T03:10:52;4.00;;;1.97;;
3207;SDS011;1616;52.394;9.756;2023-03-05T03:13:22;6.13;;;1.80;;
3207;SDS011;1616;52.394;9.756;2023-03-05T03:15:49;9.13;;;1.90;;
3207;SDS011;1616;52.394;9.756;2023-03-05T03:18:14;3.93;;;1.80;;
3207;SDS011;1616;52.394;9.756;2023-03-05T03:20:40;5.67;;;2.20;;
3207;SDS011;1616;52.394;9.756;2023-03-05T03:23:07;5.40;;;2.33;;
3207;SDS011;1616;52.394;9.756;2023-03-05T03:25:32;5.73;;;1.53;;
3207;SDS011;1616;52.394;9.756;2023-03-05T03:27:58;7.10;;;2.40;;
3207;SDS011;1616;52.394;9.756;2023-03-05T03:30:24;5.97;;;1.80;;
3207;SDS011;1616;52.394;9.756;2023-03-05T03:32:50;4.73;;;1.90;;
3207;SDS011;1616;52.394;9.756;2023-03-05T03:35:17;3.27;;;1.40;;
3207;SDS011;1616;52.394;9.756;2023-03-05T03:37:43;2.37;;;1.80;;
3207;SDS011;1616;52.394;9.756;2023-03-05T03:40:09;1.30;;;1.20;;
3207;SDS011;1616;52.394;9.756;2023-03-05T03:42:36;4.00;;;1.67;;
3207;SDS011;1616;52.394;9.756;2023-03-05T03:45:01;3.70;;;1.70;;
3207;SDS011;1616;52.394;9.756;2023-03-05T03:47:28;1.77;;;1.60;;
3207;SDS011;1616;52.394;9.756;2023-03-05T03:49:54;2.83;;;1.50;;
3207;SDS011;1616;52.394;9.756;2023-03-05T03:52:19;4.00;;;1.50;;
3207;SDS011;1616;52.394;9.756;2023-03-05T03:54:48;2.30;;;1.70;;
3207;SDS011;1616;52.394;9.756;2023-03-05T03:57:17;4.00;;;1.87;;
3207;SDS011;1616;52.394;9.756;2023-03-05T03:59:43;4.13;;;2.00;;
3207;SDS011;1616;52.394;9.756;2023-03-05T04:02:10;9.43;;;1.70;;
3207;SDS011;1616;52.394;9.756;2023-03-05T04:04:35;3.60;;;1.70;;
3207;SDS011;1616;52.394;9.756;2023-03-05T04:07:01;10.13;;;2.00;;
3207;SDS011;1616;52.394;9.756;2023-03-05T04:09:28;9.27;;;1.70;;
3207;SDS011;1616;52.394;9.756;2023-03-05T04:11:53;7.13;;;2.10;;
3207;SDS011;1616;52.394;9.756;2023-03-05T04:14:20;4.07;;;1.90;;
3207;SDS011;1616;52.394;9.756;2023-03-05T04:16:46;9.33;;;1.97;;
3207;SDS011;1616;52.394;9.756;2023-03-05T04:19:11;4.67;;;2.40;;
3207;SDS011;1616;52.394;9.756;2023-03-05T04:21:37;3.70;;;2.23;;
3207;SDS011;1616;52.394;9.756;2023-03-05T04:24:04;3.97;;;2.13;;
3207;SDS011;1616;52.394;9.756;2023-03-05T04:26:30;4.93;;;2.47;;
3207;SDS011;1616;52.394;9.756;2023-03-05T04:28:56;4.17;;;1.87;;
3207;SDS011;1616;52.394;9.756;2023-03-05T04:31:21;11.83;;;1.80;;
3207;SDS011;1616;52.394;9.756;2023-03-05T04:33:47;4.10;;;2.17;;
3207;SDS011;1616;52.394;9.756;2023-03-05T04:36:13;13.80;;;2.03;;
3207;SDS011;1616;52.394;9.756;2023-03-05T04:38:38;3.50;;;2.00;;
3207;SDS011;1616;52.394;9.756;2023-03-05T04:41:04;3.30;;;1.70;;
3207;SDS011;1616;52.394;9.756;2023-03-05T04:43:30;9.87;;;1.97;;
3207;SDS011;1616;52.394;9.756;2023-03-05T04:45:55;9.90;;;2.57;;
3207;SDS011;1616;52.394;9.756;2023-03-05T04:48:21;3.70;;;1.77;;
3207;SDS011;1616;52.394;9.756;2023-03-05T04:50:46;3.00;;;1.60;;
3207;SDS011;1616;52.394;9.756;2023-03-05T04:53:12;3.50;;;1.80;;
3207;SDS011;1616;52.394;9.756;2023-03-05T04:55:38;6.57;;;2.47;;
3207;SDS011;1616;52.394;9.756;2023-03-05T04:58:04;2.53;;;2.33;;
3207;SDS011;1616;52.394;9.756;2023-03-05T05:00:29;6.63;;;3.40;;
3207;SDS011;1616;52.394;9.756;2023-03-05T05:02:55;6.53;;;2.10;;
3207;SDS011;1616;52.394;9.756;2023-03-05T05:05:22;7.30;;;2.00;;
3207;SDS011;1616;52.394;9.756;2023-03-05T05:07:52;7.63;;;2.53;;
3207;SDS011;1616;52.394;9.756;2023-03-05T05:10:21;5.13;;;2.07;;
3207;SDS011;1616;52.394;9.756;2023-03-05T05:12:48;12.53;;;2.10;;
3207;SDS011;1616;52.394;9.756;2023-03-05T05:15:13;3.20;;;2.53;;
3207;SDS011;1616;52.394;9.756;2023-03-05T05:17:39;4.77;;;2.90;;
3207;SDS011;1616;52.394;9.756;2023-03-05T05:20:05;3.80;;;2.33;;
3207;SDS011;1616;52.394;9.756;2023-03-05T05:22:32;5.27;;;2.97;;
3207;SDS011;1616;52.394;9.756;2023-03-05T05:24:58;4.97;;;2.30;;
3207;SDS011;1616;52.394;9.756;2023-03-05T05:27:24;5.43;;;1.80;;
3207;SDS011;1616;52.394;9.756;2023-03-05T05:29:50;5.93;;;1.93;;
3207;SDS011;1616;52.394;9.756;2023-03-05T05:32:17;7.50;;;2.30;;
3207;SDS011;1616;52.394;9.756;2023-03-05T05:34:44;2.83;;;1.70;;
3207;SDS011;1616;52.394;9.756;2023-03-05T05:37:10;9.07;;;2.30;;
3207;SDS011;1616;52.394;9.756;2023-03-05T05:39:35;4.70;;;1.70;;
3207;SDS011;1616;52.394;9.756;2023-03-05T05:42:01;8.43;;;2.37;;
3207;SDS011;1616;52.394;9.756;2023-03-05T05:44:27;2.67;;;1.87;;
3207;SDS011;1616;52.394;9.756;2023-03-05T05:46:53;4.10;;;1.90;;
3207;SDS011;1616;52.394;9.756;2023-03-05T05:49:18;3.53;;;1.70;;
3207;SDS011;1616;52.394;9.756;2023-03-05T05:51:45;4.03;;;1.87;;
3207;SDS011;1616;52.394;9.756;2023-03-05T05:54:13;4.60;;;2.17;;
3207;SDS011;1616;52.394;9.756;2023-03-05T05:56:39;4.33;;;1.90;;
3207;SDS011;1616;52.394;9.756;2023-03-05T05:59:06;7.37;;;1.70;;
3207;SDS011;1616;52.394;9.756;2023-03-05T06:01:32;4.73;;;2.00;;
3207;SDS011;1616;52.394;9.756;2023-03-05T06:03:59;2.30;;;1.60;;
3207;SDS011;1616;52.394;9.756;2023-03-05T06:06:25;5.13;;;1.90;;
3207;SDS011;1616;52.394;9.756;2023-03-05T06:08:51;6.33;;;2.10;;
3207;SDS011;1616;52.394;9.756;2023-03-05T06:11:17;8.43;;;2.07;;
3207;SDS011;1616;52.394;9.756;2023-03-05T06:13:44;8.67;;;2.30;;
3207;SDS011;1616;52.394;9.756;2023-03-05T06:16:11;5.97;;;2.30;;
3207;SDS011;1616;52.394;9.756;2023-03-05T06:18:38;10.90;;;2.47;;
3207;SDS011;1616;52.394;9.756;2023-03-05T06:21:06;4.43;;;1.73;;
3207;SDS011;1616;52.394;9.756;2023-03-05T06:23:33;17.70;;;2.57;;
3207;SDS011;1616;52.394;9.756;2023-03-05T06:25:59;6.90;;;1.57;;
3207;SDS011;1616;52.394;9.756;2023-03-05T06:28:27;4.07;;;1.80;;
3207;SDS011;1616;52.394;9.756;2023-03-05T06:31:00;6.23;;;1.70;;
3207;SDS011;1616;52.394;9.756;2023-03-05T06:33:31;4.10;;;1.80;;
3207;SDS011;1616;52.394;9.756;2023-03-05T06:35:57;3.27;;;1.70;;
3207;SDS011;1616;52.394;9.756;2023-03-05T06:38:23;9.50;;;1.80;;
3207;SDS011;1616;52.394;9.756;2023-03-05T06:40:49;10.97;;;2.23;;
3207;SDS011;1616;52.394;9.756;2023-03-05T06:43:15;6.13;;;1.97;;
3207;SDS011;1616;52.394;9.756;2023-03-05T06:45:41;7.40;;;1.80;;
3207;SDS011;1616;52.394;9.756;2023-03-05T06:48:07;4.50;;;1.70;;
3207;SDS011;1616;52.394;9.756;2023-03-05T06:50:34;5.87;;;1.73;;
3207;SDS011;1616;52.394;9.756;2023-03-05T06:53:00;6.97;;;2.00;;
3207;SDS011;1616;52.394;9.756;2023-03-05T06:55:26;6.07;;;1.50;;
3207;SDS011;1616;52.394;9.756;2023-03-05T06:57:52;5.00;;;1.90;;
3207;SDS011;1616;52.394;9.756;2023-03-05T07:00:17;2.57;;;1.60;;
3207;SDS011;1616;52.394;9.756;2023-03-05T07:02:44;2.77;;;1.70;;
3207;SDS011;1616;52.394;9.756;2023-03-05T07:05:09;12.60;;;1.53;;
3207;SDS011;1616;52.394;9.756;2023-03-05T07:07:35;3.30;;;1.60;;
3207;SDS011;1616;52.394;9.756;2023-03-05T07:10:01;2.30;;;2.00;;
3207;SDS011;1616;52.394;9.756;2023-03-05T07:12:28;5.83;;;1.93;;
3207;SDS011;1616;52.394;9.756;2023-03-05T07:14:53;9.87;;;2.20;;
3207;SDS011;1616;52.394;9.756;2023-03-05T07:17:19;6.73;;;2.07;;
3207;SDS011;1616;52.394;9.756;2023-03-05T07:19:45;6.30;;;1.93;;
3207;SDS011;1616;52.394;9.756;2023-03-05T07:22:10;5.70;;;1.60;;
3207;SDS011;1616;52.394;9.756;2023-03-05T07:24:36;6.43;;;2.23;;
3207;SDS011;1616;52.394;9.756;2023-03-05T07:27:03;2.77;;;1.43;;
3207;SDS011;1616;52.394;9.756;2023-03-05T07:29:28;10.40;;;1.90;;
3207;SDS011;1616;52.394;9.756;2023-03-05T07:31:54;7.13;;;2.40;;
3207;SDS011;1616;52.394;9.756;2023-03-05T07:34:20;8.20;;;2.17;;
3207;SDS011;1616;52.394;9.756;2023-03-05T07:36:48;14.03;;;1.87;;
3207;SDS011;1616;52.394;9.756;2023-03-05T07:39:15;3.70;;;1.83;;
3207;SDS011;1616;52.394;9.756;2023-03-05T07:41:43;5.30;;;1.53;;
3207;SDS011;1616;52.394;9.756;2023-03-05T07:44:09;2.53;;;2.30;;
3207;SDS011;1616;52.394;9.756;2023-03-05T07:46:36;4.37;;;1.57;;
3207;SDS011;1616;52.394;9.756;2023-03-05T07:49:02;2.60;;;1.60;;
3207;SDS011;1616;52.394;9.756;2023-03-05T07:51:29;4.43;;;1.63;;
3207;SDS011;1616;52.394;9.756;2023-03-05T07:53:55;3.23;;;1.70;;
3207;SDS011;1616;52.394;9.756;2023-03-05T07:56:29;6.03;;;1.57;;
3207;SDS011;1616;52.394;9.756;2023-03-05T07:59:09;2.43;;;1.97;;
3207;SDS011;1616;52.394;9.756;2023-03-05T08:01:36;2.53;;;1.40;;
3207;SDS011;1616;52.394;9.756;2023-03-05T08:04:02;6.80;;;1.50;;
3207;SDS011;1616;52.394;9.756;2023-03-05T08:06:29;5.00;;;1.60;;
3207;SDS011;1616;52.394;9.756;2023-03-05T08:08:56;4.93;;;1.50;;
3207;SDS011;1616;52.394;9.756;2023-03-05T08:11:22;3.47;;;1.70;;
3207;SDS011;1616;52.394;9.756;2023-03-05T08:13:49;6.70;;;1.73;;
3207;SDS011;1616;52.394;9.756;2023-03-05T08:16:16;4.63;;;1.70;;
3207;SDS011;1616;52.394;9.756;2023-03-05T08:18:44;2.10;;;1.90;;
3207;SDS011;1616;52.394;9.756;2023-03-05T08:21:27;1.50;;;1.37;;
3207;SDS011;1616;52.394;9.756;2023-03-05T08:23:55;5.00;;;1.60;;
3207;SDS011;1616;52.394;9.756;2023-03-05T08:26:22;2.20;;;1.57;;
3207;SDS011;1616;52.394;9.756;2023-03-05T08:28:49;4.20;;;1.43;;
3207;SDS011;1616;52.394;9.756;2023-03-05T08:31:15;2.13;;;1.60;;
3207;SDS011;1616;52.394;9.756;2023-03-05T08:33:42;5.33;;;1.67;;
3207;SDS011;1616;52.394;9.756;2023-03-05T08:36:08;6.00;;;1.60;;
3207;SDS011;1616;52.394;9.756;2023-03-05T08:38:34;6.87;;;1.50;;
3207;SDS011;1616;52.394;9.756;2023-03-05T08:41:01;1.80;;;1.57;;
3207;SDS011;1616;52.394;9.756;2023-03-05T08:43:27;4.03;;;1.10;;
3207;SDS011;1616;52.394;9.756;2023-03-05T08:45:55;2.23;;;1.20;;
3207;SDS011;1616;52.394;9.756;2023-03-05T08:48:21;1.50;;;1.40;;
3207;SDS011;1616;52.394;9.756;2023-03-05T08:50:47;3.03;;;1.63;;
3207;SDS011;1616;52.394;9.756;2023-03-05T08:53:13;1.77;;;1.47;;
3207;SDS011;1616;52.394;9.756;2023-03-05T08:55:39;4.00;;;1.90;;
3207;SDS011;1616;52.394;9.756;2023-03-05T08:58:05;4.60;;;1.30;;
3207;SDS011;1616;52.394;9.756;2023-03-05T09:00:31;1.90;;;1.53;;
3207;SDS011;1616;52.394;9.756;2023-03-05T09:02:57;4.00;;;1.63;;
3207;SDS011;1616;52.394;9.756;2023-03-05T09:05:22;2.37;;;1.40;;
3207;SDS011;1616;52.394;9.756;2023-03-05T09:07:48;1.63;;;1.37;;
3207;SDS011;1616;52.394;9.756;2023-03-05T09:10:14;1.90;;;1.40;;
3207;SDS011;1616;52.394;9.756;2023-03-05T09:12:40;4.00;;;1.37;;
3207;SDS011;1616;52.394;9.756;2023-03-05T09:15:06;1.37;;;1.20;;
3207;SDS011;1616;52.394;9.756;2023-03-05T09:17:34;4.00;;;1.50;;
3207;SDS011;1616;52.394;9.756;2023-03-05T09:20:00;2.27;;;1.67;;
3207;SDS011;1616;52.394;9.756;2023-03-05T09:22:28;1.70;;;1.40;;
3207;SDS011;1616;52.394;9.756;2023-03-05T09:24:54;2.43;;;1.60;;
3207;SDS011;1616;52.394;9.756;2023-03-05T09:27:20;1.87;;;1.50;;
3207;SDS011;1616;52.394;9.756;2023-03-05T09:29:46;2.00;;;1.87;;
3207;SDS011;1616;52.394;9.756;2023-03-05T09:32:12;2.07;;;1.97;;
3207;SDS011;1616;52.394;9.756;2023-03-05T09:34:37;2.20;;;2.00;;
3207;SDS011;1616;52.394;9.756;2023-03-05T09:37:03;10.50;;;2.10;;
3207;SDS011;1616;52.394;9.756;2023-03-05T09:39:30;2.37;;;1.90;;
3207;SDS011;1616;52.394;9.756;2023-03-05T09:52:56;1.33;;;1.23;;
3207;SDS011;1616;52.394;9.756;2023-03-05T09:55:37;3.83;;;1.30;;
3207;SDS011;1616;52.394;9.756;2023-03-05T09:58:06;3.80;;;1.30;;
3207;SDS011;1616;52.394;9.756;2023-03-05T10:03:27;1.27;;;0.90;;
3207;SDS011;1616;52.394;9.756;2023-03-05T10:06:05;1.57;;;1.00;;
3207;SDS011;1616;52.394;9.756;2023-03-05T10:11:42;1.30;;;0.90;;
3207;SDS011;1616;52.394;9.756;2023-03-05T10:14:34;3.87;;;1.00;;
3207;SDS011;1616;52.394;9.756;2023-03-05T10:22:52;5.20;;;1.27;;
3207;SDS011;1616;52.394;9.756;2023-03-05T10:28:17;2.13;;;1.10;;
3207;SDS011;1616;52.394;9.756;2023-03-05T10:36:14;4.57;;;0.93;;
3207;SDS011;1616;52.394;9.756;2023-03-05T10:42:05;1.53;;;1.10;;
3207;SDS011;1616;52.394;9.756;2023-03-05T10:44:43;2.60;;;1.00;;
3207;SDS011;1616;52.394;9.756;2023-03-05T10:47:20;1.27;;;1.07;;
3207;SDS011;1616;52.394;9.756;2023-03-05T10:49:50;2.50;;;1.17;;
3207;SDS011;1616;52.394;9.756;2023-03-05T10:52:39;2.20;;;1.10;;
3207;SDS011;1616;52.394;9.756;2023-03-05T10:55:15;2.70;;;0.90;;
3207;SDS011;1616;52.394;9.756;2023-03-05T10:57:42;1.17;;;0.80;;
3207;SDS011;1616;52.394;9.756;2023-03-05T11:00:19;2.20;;;0.93;;
3207;SDS011;1616;52.394;9.756;2023-03-05T11:02:54;3.53;;;0.73;;
3207;SDS011;1616;52.394;9.756;2023-03-05T11:13:33;7.43;;;0.90;;
3207;SDS011;1616;52.394;9.756;2023-03-05T11:16:02;1.33;;;0.73;;
3207;SDS011;1616;52.394;9.756;2023-03-05T11:18:30;1.10;;;0.77;;
3207;SDS011;1616;52.394;9.756;2023-03-05T11:21:08;1.40;;;0.90;;
3207;SDS011;1616;52.394;9.756;2023-03-05T11:23:46;2.10;;;0.80;;
3207;SDS011;1616;52.394;9.756;2023-03-05T11:26:48;1.83;;;0.90;;
3207;SDS011;1616;52.394;9.756;2023-03-05T11:29:18;1.17;;;0.93;;
3207;SDS011;1616;52.394;9.756;2023-03-05T11:31:52;3.70;;;1.10;;
3207;SDS011;1616;52.394;9.756;2023-03-05T11:39:20;1.53;;;0.90;;
3207;SDS011;1616;52.394;9.756;2023-03-05T11:42:00;2.13;;;0.80;;
3207;SDS011;1616;52.394;9.756;2023-03-05T11:44:31;1.80;;;0.80;;
3207;SDS011;1616;52.394;9.756;2023-03-05T11:52:47;1.30;;;1.03;;
3207;SDS011;1616;52.394;9.756;2023-03-05T11:55:17;5.50;;;4.40;;
3207;SDS011;1616;52.394;9.756;2023-03-05T12:00:36;9.40;;;0.93;;
3207;SDS011;1616;52.394;9.756;2023-03-05T12:03:08;3.03;;;1.20;;
3207;SDS011;1616;52.394;9.756;2023-03-05T12:05:39;4.40;;;0.93;;
3207;SDS011;1616;52.394;9.756;2023-03-05T12:08:10;3.40;;;1.10;;
3207;SDS011;1616;52.394;9.756;2023-03-05T12:10:39;1.10;;;0.87;;
3207;SDS011;1616;52.394;9.756;2023-03-05T12:13:13;1.70;;;1.20;;
3207;SDS011;1616;52.394;9.756;2023-03-05T12:21:28;3.40;;;1.10;;
3207;SDS011;1616;52.394;9.756;2023-03-05T12:24:02;1.10;;;1.00;;
3207;SDS011;1616;52.394;9.756;2023-03-05T12:29:39;2.87;;;1.00;;
3207;SDS011;1616;52.394;9.756;2023-03-05T12:32:05;1.47;;;1.20;;
3207;SDS011;1616;52.394;9.756;2023-03-05T12:47:37;1.93;;;1.00;;
3207;SDS011;1616;52.394;9.756;2023-03-05T12:50:03;3.63;;;1.00;;
3207;SDS011;1616;52.394;9.756;2023-03-05T12:52:31;2.10;;;1.00;;
3207;SDS011;1616;52.394;9.756;2023-03-05T13:03:38;1.90;;;1.00;;
3207;SDS011;1616;52.394;9.756;2023-03-05T13:06:21;4.13;;;1.20;;
3207;SDS011;1616;52.394;9.756;2023-03-05T13:09:00;3.73;;;1.60;;
3207;SDS011;1616;52.394;9.756;2023-03-05T13:11:48;5.43;;;1.20;;
3207;SDS011;1616;52.394;9.756;2023-03-05T13:19:56;7.23;;;0.97;;
3207;SDS011;1616;52.394;9.756;2023-03-05T13:22:23;1.50;;;1.00;;
3207;SDS011;1616;52.394;9.756;2023-03-05T13:27:47;3.50;;;1.30;;
3207;SDS011;1616;52.394;9.756;2023-03-05T13:30:23;1.37;;;1.00;;
3207;SDS011;1616;52.394;9.756;2023-03-05T13:32:51;1.30;;;0.87;;
3207;SDS011;1616;52.394;9.756;2023-03-05T13:35:22;2.57;;;1.00;;
3207;SDS011;1616;52.394;9.756;2023-03-05T13:37:47;1.30;;;0.70;;
3207;SDS011;1616;52.394;9.756;2023-03-05T13:40:17;2.20;;;0.90;;
3207;SDS011;1616;52.394;9.756;2023-03-05T13:42:48;3.60;;;1.20;;
3207;SDS011;1616;52.394;9.756;2023-03-05T13:48:14;4.00;;;0.87;;
3207;SDS011;1616;52.394;9.756;2023-03-05T13:50:43;2.50;;;1.10;;
3207;SDS011;1616;52.394;9.756;2023-03-05T13:55:47;2.60;;;1.13;;
3207;SDS011;1616;52.394;9.756;2023-03-05T14:01:17;1.50;;;0.80;;
3207;SDS011;1616;52.394;9.756;2023-03-05T14:04:33;1.43;;;0.80;;
3207;SDS011;1616;52.394;9.756;2023-03-05T14:12:04;1.10;;;0.80;;
3207;SDS011;1616;52.394;9.756;2023-03-05T14:14:36;2.13;;;0.80;;
3207;SDS011;1616;52.394;9.756;2023-03-05T14:19:47;0.90;;;0.60;;
3207;SDS011;1616;52.394;9.756;2023-03-05T14:22:30;1.90;;;0.60;;
3207;SDS011;1616;52.394;9.756;2023-03-05T14:25:01;1.00;;;0.70;;
3207;SDS011;1616;52.394;9.756;2023-03-05T14:27:29;1.30;;;0.70;;
3207;SDS011;1616;52.394;9.756;2023-03-05T14:29:58;2.10;;;0.70;;
3207;SDS011;1616;52.394;9.756;2023-03-05T14:32:29;1.00;;;0.80;;
3207;SDS011;1616;52.394;9.756;2023-03-05T14:34:58;5.60;;;0.90;;
3207;SDS011;1616;52.394;9.756;2023-03-05T14:40:03;1.13;;;0.70;;
3207;SDS011;1616;52.394;9.756;2023-03-05T14:42:32;2.23;;;0.90;;
3207;SDS011;1616;52.394;9.756;2023-03-05T14:45:09;1.30;;;1.20;;
3207;SDS011;1616;52.394;9.756;2023-03-05T14:47:35;1.30;;;0.90;;
3207;SDS011;1616;52.394;9.756;2023-03-05T14:50:02;2.20;;;0.90;;
3207;SDS011;1616;52.394;9.756;2023-03-05T14:52:29;2.60;;;1.07;;
3207;SDS011;1616;52.394;9.756;2023-03-05T14:54:55;2.83;;;1.03;;
3207;SDS011;1616;52.394;9.756;2023-03-05T14:57:22;2.97;;;1.23;;
3207;SDS011;1616;52.394;9.756;2023-03-05T14:59:51;2.20;;;1.27;;
3207;SDS011;1616;52.394;9.756;2023-03-05T15:02:19;2.13;;;1.10;;
3207;SDS011;1616;52.394;9.756;2023-03-05T15:04:47;2.70;;;1.10;;
3207;SDS011;1616;52.394;9.756;2023-03-05T15:07:17;4.83;;;1.13;;
3207;SDS011;1616;52.394;9.756;2023-03-05T15:09:46;6.10;;;1.20;;
3207;SDS011;1616;52.394;9.756;2023-03-05T15:12:12;2.13;;;1.00;;
3207;SDS011;1616;52.394;9.756;2023-03-05T15:14:40;1.93;;;1.07;;
3207;SDS011;1616;52.394;9.756;2023-03-05T15:17:12;2.47;;;1.10;;
3207;SDS011;1616;52.394;9.756;2023-03-05T15:19:43;2.43;;;1.10;;
3207;SDS011;1616;52.394;9.756;2023-03-05T15:22:10;1.00;;;0.90;;
3207;SDS011;1616;52.394;9.756;2023-03-05T15:24:36;1.23;;;1.00;;
3207;SDS011;1616;52.394;9.756;2023-03-05T15:27:02;2.10;;;1.23;;
3207;SDS011;1616;52.394;9.756;2023-03-05T15:29:28;1.40;;;0.90;;
3207;SDS011;1616;52.394;9.756;2023-03-05T15:31:54;1.10;;;1.00;;
3207;SDS011;1616;52.394;9.756;2023-03-05T15:34:19;5.57;;;1.00;;
3207;SDS011;1616;52.394;9.756;2023-03-05T15:36:45;2.23;;;1.17;;
3207;SDS011;1616;52.394;9.756;2023-03-05T15:39:10;2.87;;;1.00;;
3207;SDS011;1616;52.394;9.756;2023-03-05T15:41:36;1.00;;;0.90;;
3207;SDS011;1616;52.394;9.756;2023-03-05T15:44:03;1.60;;;1.03;;
3207;SDS011;1616;52.394;9.756;2023-03-05T15:46:28;3.03;;;1.00;;
3207;SDS011;1616;52.394;9.756;2023-03-05T15:48:54;1.33;;;1.00;;
3207;SDS011;1616;52.394;9.756;2023-03-05T15:51:20;1.60;;;1.20;;
3207;SDS011;1616;52.394;9.756;2023-03-05T15:53:46;1.67;;;1.33;;
3207;SDS011;1616;52.394;9.756;2023-03-05T15:56:13;4.80;;;1.10;;
3207;SDS011;1616;52.394;9.756;2023-03-05T15:58:40;1.50;;;1.20;;
3207;SDS011;1616;52.394;9.756;2023-03-05T16:01:09;5.20;;;1.10;;
3207;SDS011;1616;52.394;9.756;2023-03-05T16:03:35;1.57;;;1.07;;
3207;SDS011;1616;52.394;9.756;2023-03-05T16:06:01;5.17;;;1.13;;
3207;SDS011;1616;52.394;9.756;2023-03-05T16:08:32;1.50;;;1.13;;
3207;SDS011;1616;52.394;9.756;2023-03-05T16:10:59;5.63;;;1.20;;
3207;SDS011;1616;52.394;9.756;2023-03-05T16:13:25;1.30;;;0.90;;
3207;SDS011;1616;52.394;9.756;2023-03-05T16:15:53;3.77;;;1.00;;
3207;SDS011;1616;52.394;9.756;2023-03-05T16:18:19;5.93;;;1.00;;
3207;SDS011;1616;52.394;9.756;2023-03-05T16:20:45;1.37;;;0.90;;
3207;SDS011;1616;52.394;9.756;2023-03-05T16:23:11;1.73;;;0.90;;
3207;SDS011;1616;52.394;9.756;2023-03-05T16:25:38;1.53;;;0.90;;
3207;SDS011;1616;52.394;9.756;2023-03-05T16:28:03;1.23;;;1.00;;
3207;SDS011;1616;52.394;9.756;2023-03-05T16:30:29;3.77;;;0.90;;
3207;SDS011;1616;52.394;9.756;2023-03-05T16:32:57;1.20;;;0.87;;
3207;SDS011;1616;52.394;9.756;2023-03-05T16:35:22;1.20;;;0.80;;
3207;SDS011;1616;52.394;9.756;2023-03-05T16:37:48;1.00;;;0.70;;
3207;SDS011;1616;52.394;9.756;2023-03-05T16:40:15;1.93;;;0.77;;
3207;SDS011;1616;52.394;9.756;2023-03-05T16:42:41;1.00;;;0.67;;
3207;SDS011;1616;52.394;9.756;2023-03-05T16:45:08;0.80;;;0.60;;
3207;SDS011;1616;52.394;9.756;2023-03-05T16:47:35;1.20;;;0.80;;
3207;SDS011;1616;52.394;9.756;2023-03-05T16:50:00;2.00;;;1.10;;
3207;SDS011;1616;52.394;9.756;2023-03-05T16:52:26;1.57;;;0.70;;
3207;SDS011;1616;52.394;9.756;2023-03-05T16:54:52;1.10;;;0.73;;
3207;SDS011;1616;52.394;9.756;2023-03-05T16:57:18;1.00;;;0.60;;
3207;SDS011;1616;52.394;9.756;2023-03-05T16:59:47;1.87;;;0.70;;
3207;SDS011;1616;52.394;9.756;2023-03-05T17:02:13;4.60;;;0.70;;
3207;SDS011;1616;52.394;9.756;2023-03-05T17:04:40;1.23;;;0.70;;
3207;SDS011;1616;52.394;9.756;2023-03-05T17:07:06;1.23;;;0.67;;
3207;SDS011;1616;52.394;9.756;2023-03-05T17:09:33;1.70;;;0.80;;
3207;SDS011;1616;52.394;9.756;2023-03-05T17:11:59;1.40;;;0.80;;
3207;SDS011;1616;52.394;9.756;2023-03-05T17:14:25;2.63;;;0.90;;
3207;SDS011;1616;52.394;9.756;2023-03-05T17:16:51;1.90;;;1.57;;